createdAt,value
2023-04-17T00:02:25.623Z,15.00
2023-04-17T00:04:53.675Z,14.03
2023-04-17T00:07:24.151Z,14.45
2023-04-17T00:09:50.974Z,14.40
2023-04-17T00:12:17.585Z,13.30
2023-04-17T00:14:44.537Z,13.85
2023-04-17T00:17:11.055Z,13.93
2023-04-17T00:19:37.478Z,14.13
2023-04-17T00:22:03.878Z,14.07
2023-04-17T00:24:30.479Z,14.00
2023-04-17T00:26:57.275Z,13.85
2023-04-17T00:29:23.966Z,14.13
2023-04-17T00:31:50.574Z,13.15
2023-04-17T00:34:17.005Z,11.80
2023-04-17T00:36:43.419Z,12.32
2023-04-17T00:39:10.092Z,10.77
2023-04-17T00:41:36.729Z,11.07
2023-04-17T00:44:03.157Z,11.18
2023-04-17T00:46:30.647Z,10.57
2023-04-17T00:48:57.411Z,11.32
2023-04-17T00:51:23.933Z,10.80
2023-04-17T00:53:50.422Z,10.23
2023-04-17T00:56:16.898Z,11.45
2023-04-17T00:58:43.944Z,10.00
2023-04-17T01:01:10.886Z,10.38
2023-04-17T01:03:37.651Z,8.82
2023-04-17T01:06:04.329Z,8.77
2023-04-17T01:08:42.645Z,9.35
2023-04-17T01:11:10.235Z,9.55
2023-04-17T01:13:49.786Z,9.10
2023-04-17T01:16:16.399Z,8.55
2023-04-17T01:18:43.682Z,9.90
2023-04-17T01:23:54.651Z,9.15
2023-04-17T01:26:23.360Z,8.88
2023-04-17T01:28:54.761Z,8.85
2023-04-17T01:31:21.564Z,8.60
2023-04-17T01:33:49.205Z,8.55
2023-04-17T01:36:15.959Z,8.85
2023-04-17T01:38:42.535Z,8.73
2023-04-17T01:41:12.057Z,10.00
2023-04-17T01:43:43.744Z,8.60
2023-04-17T01:46:10.599Z,8.68
2023-04-17T01:48:37.316Z,8.75
2023-04-17T01:51:04.306Z,9.07
2023-04-17T01:53:31.919Z,8.23
2023-04-17T01:55:58.842Z,8.30
2023-04-17T01:58:25.346Z,8.50
2023-04-17T02:00:52.026Z,8.18
2023-04-17T02:03:19.227Z,8.50
2023-04-17T02:05:47.352Z,9.25
2023-04-17T02:08:14.362Z,8.90
2023-04-17T02:10:43.749Z,9.45
2023-04-17T02:13:10.925Z,8.95
2023-04-17T02:15:37.918Z,9.15
2023-04-17T02:18:08.345Z,8.25
2023-04-17T02:20:35.994Z,9.40
2023-04-17T02:23:04.501Z,9.60
2023-04-17T02:25:31.008Z,8.40
2023-04-17T02:27:57.604Z,9.35
2023-04-17T02:30:24.847Z,8.65
2023-04-17T02:32:53.014Z,9.87
2023-04-17T02:35:20.945Z,9.50
2023-04-17T02:37:47.895Z,9.93
2023-04-17T02:40:14.964Z,8.85
2023-04-17T02:42:41.483Z,10.30
2023-04-17T02:45:09.100Z,9.63
2023-04-17T02:47:35.726Z,9.93
2023-04-17T02:50:02.385Z,10.15
2023-04-17T02:52:30.217Z,11.30
2023-04-17T02:54:57.271Z,11.05
2023-04-17T02:57:24.486Z,10.20
2023-04-17T02:59:51.410Z,9.55
2023-04-17T03:02:22.015Z,10.93
2023-04-17T03:04:50.421Z,10.15
2023-04-17T03:07:18.753Z,11.27
2023-04-17T03:09:48.580Z,10.87
2023-04-17T03:12:16.609Z,10.35
2023-04-17T03:14:43.436Z,11.35
2023-04-17T03:17:11.787Z,10.95
2023-04-17T03:19:38.223Z,11.55
2023-04-17T03:22:05.065Z,10.00
2023-04-17T03:24:31.793Z,11.45
2023-04-17T03:26:59.664Z,11.07
2023-04-17T03:29:26.256Z,11.52
2023-04-17T03:31:52.810Z,11.43
2023-04-17T03:34:22.359Z,9.87
2023-04-17T03:36:49.196Z,11.27
2023-04-17T03:39:15.917Z,11.45
2023-04-17T03:41:42.372Z,12.05
2023-04-17T03:44:09.866Z,10.85
2023-04-17T03:46:36.430Z,11.17
2023-04-17T03:49:02.893Z,11.57
2023-04-17T03:51:29.470Z,11.02
2023-04-17T03:53:56.042Z,10.60
2023-04-17T03:56:22.580Z,11.73
2023-04-17T03:58:49.068Z,10.57
2023-04-17T04:01:15.878Z,11.45
2023-04-17T04:03:42.719Z,11.75
2023-04-17T04:06:09.663Z,11.73
2023-04-17T04:08:36.122Z,11.75
2023-04-17T04:11:03.207Z,11.17
2023-04-17T04:13:29.678Z,11.13
2023-04-17T04:15:56.191Z,11.23
2023-04-17T04:18:22.776Z,10.93
2023-04-17T04:20:49.204Z,11.50
2023-04-17T04:23:16.845Z,12.03
2023-04-17T04:25:43.626Z,12.55
2023-04-17T04:28:10.701Z,11.98
2023-04-17T04:30:38.809Z,11.50
2023-04-17T04:33:06.048Z,11.65
2023-04-17T04:35:32.745Z,11.17
2023-04-17T04:38:02.438Z,11.45
2023-04-17T04:40:30.796Z,12.50
2023-04-17T04:42:57.306Z,10.82
2023-04-17T04:45:23.980Z,12.05
2023-04-17T04:47:50.699Z,11.63
2023-04-17T04:50:17.660Z,13.00
2023-04-17T04:52:44.149Z,12.48
2023-04-17T04:55:10.609Z,11.15
2023-04-17T04:57:37.031Z,12.80
2023-04-17T05:00:06.569Z,11.60
2023-04-17T05:02:33.302Z,11.27
2023-04-17T05:05:00.172Z,12.55
2023-04-17T05:07:27.208Z,11.77
2023-04-17T05:09:53.636Z,12.98
2023-04-17T05:12:20.069Z,11.93
2023-04-17T05:14:47.876Z,12.80
2023-04-17T05:17:14.713Z,12.73
2023-04-17T05:19:41.140Z,13.15
2023-04-17T05:22:07.611Z,13.35
2023-04-17T05:24:34.081Z,12.93
2023-04-17T05:27:02.073Z,12.35
2023-04-17T05:29:28.642Z,11.80
2023-04-17T05:31:55.228Z,12.40
2023-04-17T05:34:21.725Z,12.80
2023-04-17T05:36:48.356Z,12.57
2023-04-17T05:39:14.888Z,11.63
2023-04-17T05:41:41.432Z,12.02
2023-04-17T05:44:08.348Z,12.57
2023-04-17T05:46:34.849Z,12.20
2023-04-17T05:49:01.272Z,12.33
2023-04-17T05:51:27.730Z,13.13
2023-04-17T05:53:54.186Z,13.23
2023-04-17T05:56:21.148Z,13.57
2023-04-17T05:58:47.606Z,12.38
2023-04-17T06:01:17.762Z,13.33
2023-04-17T06:03:44.409Z,13.95
2023-04-17T06:06:11.411Z,12.45
2023-04-17T06:08:37.856Z,12.30
2023-04-17T06:11:04.491Z,13.70
2023-04-17T06:13:31.077Z,13.13
2023-04-17T06:15:57.629Z,13.32
2023-04-17T06:18:24.146Z,13.23
2023-04-17T06:20:50.904Z,14.88
2023-04-17T06:23:17.508Z,14.18
2023-04-17T06:25:44.014Z,13.40
2023-04-17T06:28:10.654Z,12.70
2023-04-17T06:30:37.948Z,13.82
2023-04-17T06:33:04.583Z,13.20
2023-04-17T06:35:31.149Z,15.63
2023-04-17T06:37:58.295Z,15.67
2023-04-17T06:40:24.759Z,13.93
2023-04-17T06:42:51.360Z,15.10
2023-04-17T06:45:17.972Z,14.10
2023-04-17T06:47:46.501Z,14.80
2023-04-17T06:50:13.119Z,14.10
2023-04-17T06:52:39.574Z,15.10
2023-04-17T06:55:06.572Z,15.07
2023-04-17T06:57:34.102Z,13.63
2023-04-17T07:00:00.684Z,15.07
2023-04-17T07:02:27.542Z,14.27
2023-04-17T07:04:55.132Z,14.57
2023-04-17T07:07:21.716Z,13.23
2023-04-17T07:09:48.358Z,12.88
2023-04-17T07:12:17.846Z,13.68
2023-04-17T07:14:44.348Z,12.83
2023-04-17T07:17:11.057Z,13.52
2023-04-17T07:19:37.551Z,14.48
2023-04-17T07:22:05.503Z,13.80
2023-04-17T07:24:35.727Z,13.68
2023-04-17T07:27:03.405Z,13.07
2023-04-17T07:29:30.664Z,14.77
2023-04-17T07:31:57.240Z,14.52
2023-04-17T07:34:25.239Z,13.30
2023-04-17T07:36:54.543Z,13.50
2023-04-17T07:39:21.062Z,13.97
2023-04-17T07:41:48.414Z,13.45
2023-04-17T07:44:14.907Z,12.98
2023-04-17T07:46:43.059Z,12.60
2023-04-17T07:49:12.058Z,13.20
2023-04-17T07:51:41.122Z,14.77
2023-04-17T07:54:07.767Z,13.88
2023-04-17T07:56:34.660Z,13.45
2023-04-17T07:59:01.200Z,14.77
2023-04-17T08:01:27.738Z,14.18
2023-04-17T08:03:55.538Z,13.80
2023-04-17T08:06:22.228Z,13.82
2023-04-17T08:08:48.670Z,14.18
2023-04-17T08:11:15.452Z,14.05
2023-04-17T08:13:42.131Z,13.50
2023-04-17T08:16:09.970Z,15.70
2023-04-17T08:18:37.869Z,13.43
2023-04-17T08:21:04.464Z,13.85
2023-04-17T08:23:31.021Z,13.93
2023-04-17T08:25:57.742Z,14.15
2023-04-17T08:28:30.384Z,13.30
2023-04-17T08:30:57.281Z,14.05
2023-04-17T08:33:23.857Z,14.65
2023-04-17T08:35:51.957Z,13.95
2023-04-17T08:38:18.512Z,13.82
2023-04-17T08:40:52.009Z,14.23
2023-04-17T08:43:20.795Z,13.40
2023-04-17T08:45:55.139Z,14.73
2023-04-17T08:48:22.899Z,15.35
2023-04-17T08:50:51.036Z,13.88
2023-04-17T08:53:18.613Z,13.50
2023-04-17T08:55:45.891Z,14.35
2023-04-17T08:58:13.294Z,14.32
2023-04-17T09:00:41.557Z,13.73
2023-04-17T09:03:11.157Z,13.20
2023-04-17T09:05:39.933Z,13.97
2023-04-17T09:08:16.568Z,13.52
2023-04-17T09:10:45.935Z,13.30
2023-04-17T09:13:24.935Z,14.00
2023-04-17T09:16:25.770Z,13.85
2023-04-17T09:19:05.277Z,14.33
2023-04-17T09:21:31.747Z,13.73
2023-04-17T09:23:59.508Z,13.52
2023-04-17T09:26:27.672Z,14.20
2023-04-17T09:29:12.420Z,14.00
2023-04-17T09:31:43.412Z,13.30
2023-04-17T09:34:12.172Z,13.77
2023-04-17T09:36:41.613Z,13.50
2023-04-17T09:39:28.408Z,15.10
2023-04-17T09:42:03.944Z,14.10
2023-04-17T09:44:31.198Z,14.03
2023-04-17T09:46:58.857Z,14.20
2023-04-17T09:49:43.436Z,13.82
2023-04-17T09:52:10.397Z,12.70
2023-04-17T09:54:38.153Z,14.32
2023-04-17T09:57:09.802Z,14.67
2023-04-17T09:59:45.593Z,14.57
2023-04-17T10:02:17.771Z,15.50
2023-04-17T10:04:46.950Z,13.40
2023-04-17T10:07:14.103Z,13.43
2023-04-17T10:09:42.023Z,13.97
2023-04-17T10:12:14.739Z,13.50
2023-04-17T10:14:44.287Z,14.32
2023-04-17T10:17:28.758Z,14.38
2023-04-17T10:19:55.921Z,13.77
2023-04-17T10:22:24.083Z,14.13
2023-04-17T10:24:52.708Z,13.88
2023-04-17T10:27:28.343Z,14.07
2023-04-17T10:29:59.593Z,15.18
2023-04-17T10:32:30.368Z,14.90
2023-04-17T10:35:01.902Z,15.20
2023-04-17T10:37:46.869Z,14.10
2023-04-17T10:40:24.419Z,13.48
2023-04-17T10:43:23.005Z,13.20
2023-04-17T10:46:05.093Z,14.77
2023-04-17T10:48:42.359Z,15.17
2023-04-17T10:51:24.193Z,15.45
2023-04-17T10:53:55.512Z,13.88
2023-04-17T10:56:30.837Z,15.88
2023-04-17T10:59:02.064Z,16.05
2023-04-17T11:01:31.985Z,15.07
2023-04-17T11:04:01.840Z,16.35
2023-04-17T11:06:31.574Z,15.05
2023-04-17T11:09:00.822Z,16.15
2023-04-17T11:11:40.404Z,15.30
2023-04-17T11:14:14.357Z,14.80
2023-04-17T11:16:43.046Z,16.40
2023-04-17T11:19:11.300Z,14.27
2023-04-17T11:21:48.048Z,14.50
2023-04-17T11:24:22.636Z,14.95
2023-04-17T11:26:50.001Z,15.63
2023-04-17T11:29:17.565Z,14.68
2023-04-17T11:31:48.681Z,14.45
2023-04-17T11:34:16.258Z,14.20
2023-04-17T11:37:00.217Z,13.60
2023-04-17T11:39:29.768Z,13.17
2023-04-17T11:41:59.063Z,14.02
2023-04-17T11:44:26.258Z,14.63
2023-04-17T11:46:54.319Z,12.98
2023-04-17T11:49:26.269Z,13.98
2023-04-17T11:51:53.820Z,13.10
2023-04-17T11:54:37.566Z,13.52
2023-04-17T11:57:06.778Z,11.35
2023-04-17T11:59:38.068Z,12.07
2023-04-17T12:02:07.487Z,11.43
2023-04-17T12:04:36.605Z,10.73
2023-04-17T12:07:04.801Z,12.88
2023-04-17T12:09:32.458Z,11.60
2023-04-17T12:12:05.432Z,11.18
2023-04-17T12:14:32.392Z,12.57
2023-04-17T12:16:59.373Z,11.77
2023-04-17T12:19:27.295Z,11.38
2023-04-17T12:21:54.678Z,11.63
2023-04-17T12:24:24.085Z,12.00
2023-04-17T12:26:51.717Z,12.05
2023-04-17T12:29:20.399Z,11.63
2023-04-17T12:31:51.158Z,12.07
2023-04-17T12:34:17.688Z,11.85
2023-04-17T12:36:44.751Z,12.20
2023-04-17T12:39:12.963Z,12.02
2023-04-17T12:41:39.558Z,10.67
2023-04-17T12:44:06.226Z,11.88
2023-04-17T12:46:32.812Z,11.65
2023-04-17T12:48:59.379Z,12.55
2023-04-17T12:51:29.728Z,11.55
2023-04-17T12:53:56.355Z,11.87
2023-04-17T12:56:23.260Z,11.75
2023-04-17T12:58:49.953Z,12.50
2023-04-17T13:01:16.602Z,11.35
2023-04-17T13:03:43.319Z,11.35
2023-04-17T13:06:10.250Z,11.47
2023-04-17T13:08:36.680Z,10.63
2023-04-17T13:11:03.973Z,11.18
2023-04-17T13:13:30.600Z,11.25
2023-04-17T13:15:57.059Z,10.98
2023-04-17T13:18:23.545Z,10.80
2023-04-17T13:20:50.084Z,10.98
2023-04-17T13:23:16.601Z,10.77
2023-04-17T13:25:43.052Z,11.13
2023-04-17T13:28:09.491Z,9.88
2023-04-17T13:30:37.344Z,9.80
2023-04-17T13:33:04.192Z,9.68
2023-04-17T13:35:30.931Z,9.27
2023-04-17T13:38:00.884Z,10.02
2023-04-17T13:40:27.711Z,9.15
2023-04-17T13:42:54.643Z,10.07
2023-04-17T13:45:21.341Z,10.20
2023-04-17T13:47:47.943Z,9.63
2023-04-17T13:50:14.522Z,8.45
2023-04-17T13:52:40.951Z,8.20
2023-04-17T13:55:11.782Z,8.80
2023-04-17T13:57:38.568Z,9.00
2023-04-17T14:00:06.361Z,9.35
2023-04-17T14:02:33.116Z,9.05
2023-04-17T14:05:00.258Z,9.48
2023-04-17T14:07:27.529Z,8.70
2023-04-17T14:09:54.174Z,9.82
2023-04-17T14:12:21.766Z,7.78
2023-04-17T14:14:48.304Z,7.55
2023-04-17T14:17:14.882Z,7.68
2023-04-17T14:19:41.417Z,8.17
2023-04-17T14:22:07.982Z,7.95
2023-04-17T14:24:34.464Z,8.40
2023-04-17T14:27:01.947Z,9.77
2023-04-17T14:29:28.542Z,10.05
2023-04-17T14:31:55.225Z,9.20
2023-04-17T14:34:21.772Z,9.60
2023-04-17T14:36:48.787Z,9.93
2023-04-17T14:39:15.508Z,10.02
2023-04-17T14:41:42.375Z,9.73
2023-04-17T14:44:08.958Z,9.63
2023-04-17T14:46:35.672Z,9.60
2023-04-17T14:49:02.392Z,9.85
2023-04-17T14:51:30.426Z,11.00
2023-04-17T14:53:57.228Z,10.40
2023-04-17T14:56:23.828Z,11.10
2023-04-17T14:58:50.360Z,11.18
2023-04-17T15:01:16.918Z,11.48
2023-04-17T15:03:47.443Z,10.18
2023-04-17T15:06:14.762Z,10.43
2023-04-17T15:08:41.630Z,8.90
2023-04-17T15:11:08.708Z,8.43
2023-04-17T15:13:35.836Z,8.35
2023-04-17T15:16:02.788Z,10.40
2023-04-17T15:18:29.298Z,11.18
2023-04-17T15:20:56.125Z,8.63
2023-04-17T15:23:22.878Z,10.00
2023-04-17T15:25:49.447Z,10.60
2023-04-17T15:28:16.074Z,10.55
2023-04-17T15:30:42.762Z,11.45
2023-04-17T15:33:10.357Z,14.70
2023-04-17T15:35:37.443Z,12.60
2023-04-17T15:38:05.565Z,12.73
2023-04-17T15:40:32.009Z,11.27
2023-04-17T15:42:58.429Z,11.35
2023-04-17T15:45:26.202Z,11.53
2023-04-17T15:47:53.605Z,12.20
2023-04-17T15:50:21.348Z,12.13
2023-04-17T15:52:48.170Z,10.50
2023-04-17T15:55:15.078Z,10.27
2023-04-17T15:57:43.156Z,9.83
2023-04-17T16:00:10.564Z,10.40
2023-04-17T16:02:37.186Z,10.43
2023-04-17T16:05:04.350Z,9.88
2023-04-17T16:07:31.838Z,9.75
2023-04-17T16:09:58.478Z,9.20
2023-04-17T16:12:24.917Z,8.80
2023-04-17T16:14:51.416Z,8.50
2023-04-17T16:17:18.138Z,6.78
2023-04-17T16:19:44.669Z,7.95
2023-04-17T16:22:11.136Z,8.27
2023-04-17T16:24:37.572Z,8.38
2023-04-17T16:27:06.290Z,9.38
2023-04-17T16:29:32.775Z,8.90
2023-04-17T16:31:59.604Z,9.55
2023-04-17T16:34:26.182Z,9.20
2023-04-17T16:36:52.667Z,9.25
2023-04-17T16:39:19.173Z,9.90
2023-04-17T16:41:45.617Z,9.82
2023-04-17T16:44:12.179Z,8.50
2023-04-17T16:49:10.100Z,9.70
2023-04-17T16:51:38.285Z,8.68
2023-04-17T16:54:04.949Z,9.07
2023-04-17T16:56:31.431Z,9.13
2023-04-17T16:58:57.888Z,8.40
2023-04-17T17:01:24.379Z,9.02
2023-04-17T17:03:51.077Z,9.88
2023-04-17T17:06:17.773Z,9.05
2023-04-17T17:08:46.770Z,10.13
2023-04-17T17:11:15.025Z,10.00
2023-04-17T17:13:41.470Z,9.60
2023-04-17T17:16:08.084Z,9.60
2023-04-17T17:18:34.530Z,9.57
2023-04-17T17:21:01.917Z,9.43
2023-04-17T17:23:28.478Z,8.97
2023-04-17T17:25:54.931Z,9.32
2023-04-17T17:28:21.816Z,9.80
2023-04-17T17:30:48.539Z,9.63
2023-04-17T17:33:15.074Z,9.70
2023-04-17T17:35:41.530Z,9.77
2023-04-17T17:38:07.942Z,9.05
2023-04-17T17:40:34.408Z,9.50
2023-04-17T17:43:01.468Z,10.02
2023-04-17T17:45:27.962Z,9.20
2023-04-17T17:47:54.484Z,9.13
2023-04-17T17:50:21.045Z,9.63
2023-04-17T17:52:52.296Z,9.93
2023-04-17T17:55:19.058Z,9.57
2023-04-17T17:57:49.223Z,10.00
2023-04-17T18:00:16.659Z,10.13
2023-04-17T18:02:43.347Z,9.82
2023-04-17T18:05:10.141Z,9.55
2023-04-17T18:07:36.701Z,10.02
2023-04-17T18:10:03.733Z,9.68
2023-04-17T18:12:30.274Z,9.63
2023-04-17T18:14:56.813Z,10.18
2023-04-17T18:17:23.274Z,9.70
2023-04-17T18:19:49.771Z,9.50
2023-04-17T18:22:16.362Z,9.80
2023-04-17T18:24:45.881Z,9.80
2023-04-17T18:27:12.468Z,9.30
2023-04-17T18:29:38.976Z,10.25
2023-04-17T18:32:05.418Z,10.60
2023-04-17T18:34:31.874Z,10.00
2023-04-17T18:37:00.238Z,10.83
2023-04-17T18:39:26.741Z,11.52
2023-04-17T18:41:53.305Z,10.20
2023-04-17T18:44:20.518Z,11.00
2023-04-17T18:46:50.842Z,11.90
2023-04-17T18:49:17.320Z,11.63
2023-04-17T18:51:50.300Z,12.20
2023-04-17T18:54:18.024Z,12.02
2023-04-17T18:56:44.828Z,11.55
2023-04-17T18:59:12.065Z,11.50
2023-04-17T19:01:38.750Z,10.97
2023-04-17T19:04:05.294Z,11.55
2023-04-17T19:06:31.859Z,11.95
2023-04-17T19:08:58.414Z,11.90
2023-04-17T19:11:28.188Z,11.05
2023-04-17T19:13:54.715Z,11.20
2023-04-17T19:16:21.290Z,11.07
2023-04-17T19:18:47.758Z,12.10
2023-04-17T19:21:16.032Z,11.65
2023-04-17T19:23:42.861Z,11.77
2023-04-17T19:26:09.725Z,11.10
2023-04-17T19:28:36.340Z,9.88
2023-04-17T19:31:03.150Z,10.18
2023-04-17T19:33:31.996Z,10.52
2023-04-17T19:35:59.183Z,10.02
2023-04-17T19:38:26.028Z,10.37
2023-04-17T19:41:15.216Z,10.77
2023-04-17T19:43:42.534Z,9.93
2023-04-17T19:46:09.403Z,9.90
2023-04-17T19:48:36.816Z,10.00
2023-04-17T19:51:07.074Z,9.07
2023-04-17T19:53:39.397Z,9.40
2023-04-17T19:56:08.980Z,9.50
2023-04-17T19:58:36.476Z,9.57
2023-04-17T20:01:03.093Z,9.20
2023-04-17T20:03:30.737Z,9.47
2023-04-17T20:05:58.175Z,8.75
2023-04-17T20:08:25.609Z,8.80
2023-04-17T20:10:52.271Z,9.05
2023-04-17T20:13:18.841Z,9.85
2023-04-17T20:15:45.371Z,8.33
2023-04-17T20:18:11.888Z,9.23
2023-04-17T20:20:43.085Z,33.80
2023-04-17T20:23:09.609Z,10.68
2023-04-17T20:25:36.208Z,9.70
2023-04-17T20:28:02.933Z,9.17
2023-04-17T20:30:30.357Z,9.82
2023-04-17T20:32:57.156Z,10.15
2023-04-17T20:35:24.639Z,9.75
2023-04-17T20:37:52.002Z,8.80
2023-04-17T20:40:19.022Z,9.77
2023-04-17T20:42:46.666Z,10.23
2023-04-17T20:45:13.406Z,9.68
2023-04-17T20:47:55.405Z,9.13
2023-04-17T20:50:23.476Z,9.63
2023-04-17T20:52:50.083Z,9.57
2023-04-17T20:55:18.915Z,9.30
2023-04-17T20:57:45.994Z,8.80
2023-04-17T21:00:13.261Z,9.32
2023-04-17T21:02:40.035Z,9.50
2023-04-17T21:05:07.618Z,8.67
2023-04-17T21:07:34.130Z,8.27
2023-04-17T21:10:00.581Z,9.10
2023-04-17T21:12:27.110Z,8.55
2023-04-17T21:14:53.557Z,8.70
2023-04-17T21:17:20.041Z,10.00
2023-04-17T21:19:47.254Z,9.02
2023-04-17T21:22:13.745Z,9.27
2023-04-17T21:24:40.276Z,9.50
2023-04-17T21:27:06.743Z,10.05
2023-04-17T21:29:33.182Z,9.03
2023-04-17T21:31:59.781Z,8.50
2023-04-17T21:34:26.443Z,9.80
2023-04-17T21:36:56.561Z,10.02
2023-04-17T21:39:23.029Z,9.10
2023-04-17T21:41:49.446Z,8.97
2023-04-17T21:44:16.096Z,8.52
2023-04-17T21:46:46.204Z,9.20
2023-04-17T21:49:12.872Z,9.15
2023-04-17T21:51:39.707Z,9.55
2023-04-17T21:54:06.297Z,9.47
2023-04-17T21:56:32.831Z,9.98
2023-04-17T21:58:59.286Z,11.15
2023-04-17T22:01:25.775Z,10.07
2023-04-17T22:03:52.404Z,9.80
2023-04-17T22:06:18.942Z,10.17
2023-04-17T22:08:45.486Z,10.18
2023-04-17T22:11:12.049Z,10.05
2023-04-17T22:13:38.576Z,10.60
2023-04-17T22:16:05.310Z,9.45
2023-04-17T22:18:31.882Z,10.77
2023-04-17T22:20:58.355Z,10.50
2023-04-17T22:23:24.809Z,9.85
2023-04-17T22:25:51.335Z,10.45
2023-04-17T22:28:17.866Z,10.60
2023-04-17T22:30:45.130Z,11.10
2023-04-17T22:33:11.694Z,10.52
2023-04-17T22:35:38.232Z,10.63
2023-04-17T22:38:04.672Z,10.60
2023-04-17T22:40:31.205Z,10.13
2023-04-17T22:42:58.057Z,10.87
2023-04-17T22:45:24.553Z,10.93
2023-04-17T22:47:51.081Z,11.05
2023-04-17T22:50:17.728Z,10.98
2023-04-17T22:52:45.146Z,10.98
2023-04-17T22:55:11.693Z,10.67
2023-04-17T22:57:38.163Z,10.77
2023-04-17T23:00:06.432Z,10.30
2023-04-17T23:02:33.039Z,10.10
2023-04-17T23:04:59.641Z,10.57
2023-04-17T23:07:26.241Z,9.83
2023-04-17T23:09:52.696Z,11.00
2023-04-17T23:12:19.964Z,10.85
2023-04-17T23:14:49.854Z,9.35
2023-04-17T23:17:16.368Z,10.45
2023-04-17T23:19:42.918Z,10.27
2023-04-17T23:22:09.865Z,10.32
2023-04-17T23:24:36.395Z,10.35
2023-04-17T23:27:02.871Z,10.52
2023-04-17T23:29:29.314Z,9.77
2023-04-17T23:31:55.830Z,10.83
2023-04-17T23:34:22.483Z,10.55
2023-04-17T23:36:49.745Z,9.90
2023-04-17T23:39:16.157Z,11.57
2023-04-17T23:41:42.776Z,11.00
2023-04-17T23:44:09.828Z,10.83
2023-04-17T23:46:36.670Z,10.77
2023-04-17T23:49:03.549Z,9.82
2023-04-17T23:51:30.381Z,10.18
2023-04-17T23:54:01.077Z,10.13
2023-04-17T23:56:29.999Z,10.27
2023-04-17T23:58:57.203Z,8.95
